sensor_id;sensor_type;location;lat;lon;timestamp;P1;durP1;ratioP1;P2;durP2;ratioP2
10550;SDS011;5324;50.684;3.862;2023-02-01T00:08:56;10.43;;;3.87;;
10550;SDS011;5324;50.684;3.862;2023-02-01T00:11:23;14.77;;;4.50;;
10550;SDS011;5324;50.684;3.862;2023-02-01T00:13:49;9.27;;;3.53;;
10550;SDS011;5324;50.684;3.862;2023-02-01T00:16:16;14.67;;;3.80;;
10550;SDS011;5324;50.684;3.862;2023-02-01T00:18:44;10.87;;;3.80;;
10550;SDS011;5324;50.684;3.862;2023-02-01T00:21:10;7.20;;;3.77;;
10550;SDS011;5324;50.684;3.862;2023-02-01T00:23:37;11.80;;;3.80;;
10550;SDS011;5324;50.684;3.862;2023-02-01T00:26:04;11.83;;;3.80;;
10550;SDS011;5324;50.684;3.862;2023-02-01T00:28:31;12.70;;;3.90;;
10550;SDS011;5324;50.684;3.862;2023-02-01T00:30:58;15.53;;;4.13;;
10550;SDS011;5324;50.684;3.862;2023-02-01T00:33:24;7.00;;;3.20;;
10550;SDS011;5324;50.684;3.862;2023-02-01T00:35:50;9.27;;;3.33;;
10550;SDS011;5324;50.684;3.862;2023-02-01T00:38:16;12.83;;;4.00;;
10550;SDS011;5324;50.684;3.862;2023-02-01T00:40:42;11.77;;;3.63;;
10550;SDS011;5324;50.684;3.862;2023-02-01T00:43:08;9.67;;;4.00;;
10550;SDS011;5324;50.684;3.862;2023-02-01T00:45:35;12.27;;;3.73;;
10550;SDS011;5324;50.684;3.862;2023-02-01T00:48:01;8.63;;;3.33;;
10550;SDS011;5324;50.684;3.862;2023-02-01T00:50:27;10.40;;;3.13;;
10550;SDS011;5324;50.684;3.862;2023-02-01T00:52:53;8.90;;;3.27;;
10550;SDS011;5324;50.684;3.862;2023-02-01T00:55:19;11.60;;;3.80;;
10550;SDS011;5324;50.684;3.862;2023-02-01T00:57:45;13.63;;;3.20;;
10550;SDS011;5324;50.684;3.862;2023-02-01T01:00:11;6.93;;;3.43;;
10550;SDS011;5324;50.684;3.862;2023-02-01T01:02:37;10.27;;;3.53;;
10550;SDS011;5324;50.684;3.862;2023-02-01T01:05:03;11.80;;;3.77;;
10550;SDS011;5324;50.684;3.862;2023-02-01T01:07:29;10.70;;;3.30;;
10550;SDS011;5324;50.684;3.862;2023-02-01T01:09:55;14.50;;;3.70;;
10550;SDS011;5324;50.684;3.862;2023-02-01T01:12:21;10.23;;;3.43;;
10550;SDS011;5324;50.684;3.862;2023-02-01T01:14:47;10.87;;;3.40;;
10550;SDS011;5324;50.684;3.862;2023-02-01T01:17:13;9.80;;;3.37;;
10550;SDS011;5324;50.684;3.862;2023-02-01T01:19:39;9.67;;;3.43;;
10550;SDS011;5324;50.684;3.862;2023-02-01T01:22:05;17.13;;;4.30;;
10550;SDS011;5324;50.684;3.862;2023-02-01T01:24:31;10.23;;;2.97;;
10550;SDS011;5324;50.684;3.862;2023-02-01T01:26:57;14.83;;;3.50;;
10550;SDS011;5324;50.684;3.862;2023-02-01T01:29:23;8.93;;;3.40;;
10550;SDS011;5324;50.684;3.862;2023-02-01T01:31:49;12.47;;;3.03;;
10550;SDS011;5324;50.684;3.862;2023-02-01T01:34:15;9.73;;;3.30;;
10550;SDS011;5324;50.684;3.862;2023-02-01T01:36:41;11.07;;;3.57;;
10550;SDS011;5324;50.684;3.862;2023-02-01T01:39:07;7.27;;;3.50;;
10550;SDS011;5324;50.684;3.862;2023-02-01T01:41:33;9.47;;;3.33;;
10550;SDS011;5324;50.684;3.862;2023-02-01T01:44:04;8.80;;;3.23;;
10550;SDS011;5324;50.684;3.862;2023-02-01T01:51:23;11.27;;;2.80;;
10550;SDS011;5324;50.684;3.862;2023-02-01T01:53:53;9.10;;;2.80;;
10550;SDS011;5324;50.684;3.862;2023-02-01T01:56:21;9.73;;;2.90;;
10550;SDS011;5324;50.684;3.862;2023-02-01T01:58:47;10.90;;;3.00;;
10550;SDS011;5324;50.684;3.862;2023-02-01T02:01:13;11.37;;;3.30;;
10550;SDS011;5324;50.684;3.862;2023-02-01T02:03:43;13.47;;;3.83;;
10550;SDS011;5324;50.684;3.862;2023-02-01T02:06:12;10.50;;;3.00;;
10550;SDS011;5324;50.684;3.862;2023-02-01T02:08:41;12.17;;;3.80;;
10550;SDS011;5324;50.684;3.862;2023-02-01T02:11:07;10.67;;;3.20;;
10550;SDS011;5324;50.684;3.862;2023-02-01T02:13:35;8.63;;;2.90;;
10550;SDS011;5324;50.684;3.862;2023-02-01T02:24:18;9.03;;;3.10;;
10550;SDS011;5324;50.684;3.862;2023-02-01T02:37:21;13.33;;;3.20;;
10550;SDS011;5324;50.684;3.862;2023-02-01T02:39:58;11.87;;;3.30;;
10550;SDS011;5324;50.684;3.862;2023-02-01T02:45:28;9.23;;;3.10;;
10550;SDS011;5324;50.684;3.862;2023-02-01T02:53:47;10.63;;;2.80;;
10550;SDS011;5324;50.684;3.862;2023-02-01T02:56:32;10.83;;;2.77;;
10550;SDS011;5324;50.684;3.862;2023-02-01T02:59:19;10.10;;;2.90;;
10550;SDS011;5324;50.684;3.862;2023-02-01T03:02:05;8.97;;;2.80;;
10550;SDS011;5324;50.684;3.862;2023-02-01T03:04:54;11.03;;;3.37;;
10550;SDS011;5324;50.684;3.862;2023-02-01T03:10:09;9.13;;;2.97;;
10550;SDS011;5324;50.684;3.862;2023-02-01T03:12:36;8.90;;;2.13;;
10550;SDS011;5324;50.684;3.862;2023-02-01T03:15:21;12.73;;;2.93;;
10550;SDS011;5324;50.684;3.862;2023-02-01T03:17:51;9.93;;;2.77;;
10550;SDS011;5324;50.684;3.862;2023-02-01T03:20:18;9.73;;;3.27;;
10550;SDS011;5324;50.684;3.862;2023-02-01T03:22:45;7.73;;;3.00;;
10550;SDS011;5324;50.684;3.862;2023-02-01T03:25:13;11.03;;;2.70;;
10550;SDS011;5324;50.684;3.862;2023-02-01T03:27:43;10.70;;;2.77;;
10550;SDS011;5324;50.684;3.862;2023-02-01T03:30:16;9.27;;;2.43;;
10550;SDS011;5324;50.684;3.862;2023-02-01T03:32:44;8.13;;;2.43;;
10550;SDS011;5324;50.684;3.862;2023-02-01T03:35:29;10.50;;;2.93;;
10550;SDS011;5324;50.684;3.862;2023-02-01T03:37:58;10.00;;;2.70;;
10550;SDS011;5324;50.684;3.862;2023-02-01T03:40:27;12.03;;;2.90;;
10550;SDS011;5324;50.684;3.862;2023-02-01T03:42:55;9.07;;;2.60;;
10550;SDS011;5324;50.684;3.862;2023-02-01T03:47:51;11.77;;;2.90;;
10550;SDS011;5324;50.684;3.862;2023-02-01T03:50:21;12.13;;;3.10;;
10550;SDS011;5324;50.684;3.862;2023-02-01T03:55:16;6.33;;;2.70;;
10550;SDS011;5324;50.684;3.862;2023-02-01T03:57:45;9.10;;;2.87;;
10550;SDS011;5324;50.684;3.862;2023-02-01T04:00:16;9.80;;;2.90;;
10550;SDS011;5324;50.684;3.862;2023-02-01T04:02:42;12.07;;;3.47;;
10550;SDS011;5324;50.684;3.862;2023-02-01T04:05:08;12.67;;;2.40;;
10550;SDS011;5324;50.684;3.862;2023-02-01T04:07:34;7.40;;;2.80;;
10550;SDS011;5324;50.684;3.862;2023-02-01T04:10:00;10.30;;;3.23;;
10550;SDS011;5324;50.684;3.862;2023-02-01T04:12:28;7.53;;;2.50;;
10550;SDS011;5324;50.684;3.862;2023-02-01T04:14:54;9.73;;;2.50;;
10550;SDS011;5324;50.684;3.862;2023-02-01T04:17:20;8.20;;;2.67;;
10550;SDS011;5324;50.684;3.862;2023-02-01T04:19:46;8.90;;;2.93;;
10550;SDS011;5324;50.684;3.862;2023-02-01T04:22:12;5.77;;;2.13;;
10550;SDS011;5324;50.684;3.862;2023-02-01T04:24:38;6.97;;;2.43;;
10550;SDS011;5324;50.684;3.862;2023-02-01T04:27:04;12.00;;;3.13;;
10550;SDS011;5324;50.684;3.862;2023-02-01T04:29:30;7.27;;;2.97;;
10550;SDS011;5324;50.684;3.862;2023-02-01T04:31:56;8.10;;;2.33;;
10550;SDS011;5324;50.684;3.862;2023-02-01T04:34:22;10.33;;;2.83;;
10550;SDS011;5324;50.684;3.862;2023-02-01T04:36:49;11.47;;;2.93;;
10550;SDS011;5324;50.684;3.862;2023-02-01T04:39:15;8.83;;;2.83;;
10550;SDS011;5324;50.684;3.862;2023-02-01T04:41:41;9.23;;;2.50;;
10550;SDS011;5324;50.684;3.862;2023-02-01T04:44:10;15.67;;;3.00;;
10550;SDS011;5324;50.684;3.862;2023-02-01T04:46:39;11.50;;;2.70;;
10550;SDS011;5324;50.684;3.862;2023-02-01T04:49:05;11.03;;;3.23;;
10550;SDS011;5324;50.684;3.862;2023-02-01T04:51:31;11.40;;;3.43;;
10550;SDS011;5324;50.684;3.862;2023-02-01T04:53:57;9.20;;;3.10;;
10550;SDS011;5324;50.684;3.862;2023-02-01T04:56:23;8.90;;;2.80;;
10550;SDS011;5324;50.684;3.862;2023-02-01T04:58:49;14.27;;;3.17;;
10550;SDS011;5324;50.684;3.862;2023-02-01T05:01:15;8.23;;;2.90;;
10550;SDS011;5324;50.684;3.862;2023-02-01T05:03:41;11.13;;;2.83;;
10550;SDS011;5324;50.684;3.862;2023-02-01T05:06:07;10.50;;;3.17;;
10550;SDS011;5324;50.684;3.862;2023-02-01T05:08:33;8.80;;;2.60;;
10550;SDS011;5324;50.684;3.862;2023-02-01T05:10:59;12.97;;;3.10;;
10550;SDS011;5324;50.684;3.862;2023-02-01T05:13:27;13.77;;;3.07;;
10550;SDS011;5324;50.684;3.862;2023-02-01T05:16:12;11.00;;;3.10;;
10550;SDS011;5324;50.684;3.862;2023-02-01T05:18:38;11.83;;;2.70;;
10550;SDS011;5324;50.684;3.862;2023-02-01T05:21:04;11.60;;;2.80;;
10550;SDS011;5324;50.684;3.862;2023-02-01T05:23:30;5.50;;;2.83;;
10550;SDS011;5324;50.684;3.862;2023-02-01T05:25:59;10.27;;;2.93;;
10550;SDS011;5324;50.684;3.862;2023-02-01T05:28:26;10.53;;;3.30;;
10550;SDS011;5324;50.684;3.862;2023-02-01T05:30:52;8.20;;;2.40;;
10550;SDS011;5324;50.684;3.862;2023-02-01T05:33:18;11.23;;;3.40;;
10550;SDS011;5324;50.684;3.862;2023-02-01T05:35:44;7.50;;;2.70;;
10550;SDS011;5324;50.684;3.862;2023-02-01T05:38:10;13.50;;;2.73;;
10550;SDS011;5324;50.684;3.862;2023-02-01T05:40:36;9.93;;;2.87;;
10550;SDS011;5324;50.684;3.862;2023-02-01T05:43:02;11.13;;;3.50;;
10550;SDS011;5324;50.684;3.862;2023-02-01T05:45:28;8.43;;;3.10;;
10550;SDS011;5324;50.684;3.862;2023-02-01T05:47:54;11.80;;;3.40;;
10550;SDS011;5324;50.684;3.862;2023-02-01T05:50:20;6.90;;;2.70;;
10550;SDS011;5324;50.684;3.862;2023-02-01T05:52:46;10.73;;;3.60;;
10550;SDS011;5324;50.684;3.862;2023-02-01T05:55:13;10.97;;;3.03;;
10550;SDS011;5324;50.684;3.862;2023-02-01T05:57:39;13.87;;;3.40;;
10550;SDS011;5324;50.684;3.862;2023-02-01T06:00:05;10.27;;;3.33;;
10550;SDS011;5324;50.684;3.862;2023-02-01T06:02:31;12.13;;;3.10;;
10550;SDS011;5324;50.684;3.862;2023-02-01T06:04:57;8.27;;;3.27;;
10550;SDS011;5324;50.684;3.862;2023-02-01T06:07:24;9.70;;;3.13;;
10550;SDS011;5324;50.684;3.862;2023-02-01T06:09:50;10.13;;;3.10;;
10550;SDS011;5324;50.684;3.862;2023-02-01T06:12:16;12.93;;;3.70;;
10550;SDS011;5324;50.684;3.862;2023-02-01T06:14:42;7.90;;;2.67;;
10550;SDS011;5324;50.684;3.862;2023-02-01T06:17:08;11.60;;;3.90;;
10550;SDS011;5324;50.684;3.862;2023-02-01T06:19:34;8.40;;;2.90;;
10550;SDS011;5324;50.684;3.862;2023-02-01T06:22:00;11.37;;;3.30;;
10550;SDS011;5324;50.684;3.862;2023-02-01T06:24:26;10.57;;;2.87;;
10550;SDS011;5324;50.684;3.862;2023-02-01T06:26:52;6.23;;;3.03;;
10550;SDS011;5324;50.684;3.862;2023-02-01T06:29:18;6.53;;;2.83;;
10550;SDS011;5324;50.684;3.862;2023-02-01T06:31:44;8.47;;;3.20;;
10550;SDS011;5324;50.684;3.862;2023-02-01T06:34:10;16.10;;;3.83;;
10550;SDS011;5324;50.684;3.862;2023-02-01T06:36:36;8.87;;;2.87;;
10550;SDS011;5324;50.684;3.862;2023-02-01T06:39:02;10.30;;;2.60;;
10550;SDS011;5324;50.684;3.862;2023-02-01T06:41:28;10.77;;;3.27;;
10550;SDS011;5324;50.684;3.862;2023-02-01T06:43:55;10.63;;;3.63;;
10550;SDS011;5324;50.684;3.862;2023-02-01T06:46:21;10.23;;;3.47;;
10550;SDS011;5324;50.684;3.862;2023-02-01T06:48:47;9.93;;;3.67;;
10550;SDS011;5324;50.684;3.862;2023-02-01T06:51:24;12.23;;;3.30;;
10550;SDS011;5324;50.684;3.862;2023-02-01T06:53:50;15.80;;;3.73;;
10550;SDS011;5324;50.684;3.862;2023-02-01T06:56:16;6.27;;;3.17;;
10550;SDS011;5324;50.684;3.862;2023-02-01T06:58:42;13.90;;;3.80;;
10550;SDS011;5324;50.684;3.862;2023-02-01T07:01:09;10.97;;;3.47;;
10550;SDS011;5324;50.684;3.862;2023-02-01T07:03:35;10.10;;;3.53;;
10550;SDS011;5324;50.684;3.862;2023-02-01T07:06:01;9.87;;;3.57;;
10550;SDS011;5324;50.684;3.862;2023-02-01T07:08:30;12.50;;;3.77;;
10550;SDS011;5324;50.684;3.862;2023-02-01T07:10:56;20.37;;;3.87;;
10550;SDS011;5324;50.684;3.862;2023-02-01T07:13:22;8.90;;;3.40;;
10550;SDS011;5324;50.684;3.862;2023-02-01T07:15:48;14.17;;;3.30;;
10550;SDS011;5324;50.684;3.862;2023-02-01T07:18:14;13.10;;;2.87;;
10550;SDS011;5324;50.684;3.862;2023-02-01T07:20:41;11.13;;;2.97;;
10550;SDS011;5324;50.684;3.862;2023-02-01T07:23:08;14.60;;;3.67;;
10550;SDS011;5324;50.684;3.862;2023-02-01T07:25:35;8.93;;;2.70;;
10550;SDS011;5324;50.684;3.862;2023-02-01T07:28:01;11.60;;;3.23;;
10550;SDS011;5324;50.684;3.862;2023-02-01T07:30:27;10.73;;;3.37;;
10550;SDS011;5324;50.684;3.862;2023-02-01T07:32:53;14.80;;;3.50;;
10550;SDS011;5324;50.684;3.862;2023-02-01T07:35:19;11.63;;;4.03;;
10550;SDS011;5324;50.684;3.862;2023-02-01T07:37:45;11.53;;;3.63;;
10550;SDS011;5324;50.684;3.862;2023-02-01T07:40:11;12.93;;;3.53;;
10550;SDS011;5324;50.684;3.862;2023-02-01T07:42:37;11.40;;;2.83;;
10550;SDS011;5324;50.684;3.862;2023-02-01T07:45:03;11.40;;;3.13;;
10550;SDS011;5324;50.684;3.862;2023-02-01T07:47:30;15.30;;;3.97;;
10550;SDS011;5324;50.684;3.862;2023-02-01T07:49:56;14.17;;;3.60;;
10550;SDS011;5324;50.684;3.862;2023-02-01T07:52:22;10.43;;;3.20;;
10550;SDS011;5324;50.684;3.862;2023-02-01T07:54:48;12.23;;;3.80;;
10550;SDS011;5324;50.684;3.862;2023-02-01T07:57:14;11.90;;;3.87;;
10550;SDS011;5324;50.684;3.862;2023-02-01T07:59:40;14.47;;;3.80;;
10550;SDS011;5324;50.684;3.862;2023-02-01T08:02:26;10.67;;;3.53;;
10550;SDS011;5324;50.684;3.862;2023-02-01T08:04:52;12.67;;;3.43;;
10550;SDS011;5324;50.684;3.862;2023-02-01T08:07:18;10.90;;;3.57;;
10550;SDS011;5324;50.684;3.862;2023-02-01T08:09:44;11.70;;;2.87;;
10550;SDS011;5324;50.684;3.862;2023-02-01T08:12:11;9.07;;;3.77;;
10550;SDS011;5324;50.684;3.862;2023-02-01T08:14:38;15.90;;;3.70;;
10550;SDS011;5324;50.684;3.862;2023-02-01T08:17:05;9.57;;;3.77;;
10550;SDS011;5324;50.684;3.862;2023-02-01T08:19:31;11.33;;;3.33;;
10550;SDS011;5324;50.684;3.862;2023-02-01T08:21:57;15.07;;;3.80;;
10550;SDS011;5324;50.684;3.862;2023-02-01T08:24:24;12.07;;;3.40;;
10550;SDS011;5324;50.684;3.862;2023-02-01T08:26:50;14.10;;;3.43;;
10550;SDS011;5324;50.684;3.862;2023-02-01T08:29:16;12.80;;;3.43;;
10550;SDS011;5324;50.684;3.862;2023-02-01T08:31:42;13.50;;;3.60;;
10550;SDS011;5324;50.684;3.862;2023-02-01T08:34:08;13.30;;;3.67;;
10550;SDS011;5324;50.684;3.862;2023-02-01T08:36:36;12.17;;;3.70;;
10550;SDS011;5324;50.684;3.862;2023-02-01T08:39:03;11.20;;;3.27;;
10550;SDS011;5324;50.684;3.862;2023-02-01T08:41:33;12.13;;;3.23;;
10550;SDS011;5324;50.684;3.862;2023-02-01T08:43:59;10.70;;;3.77;;
10550;SDS011;5324;50.684;3.862;2023-02-01T08:46:26;11.40;;;3.33;;
10550;SDS011;5324;50.684;3.862;2023-02-01T08:48:52;6.70;;;2.80;;
10550;SDS011;5324;50.684;3.862;2023-02-01T08:51:19;11.97;;;3.67;;
10550;SDS011;5324;50.684;3.862;2023-02-01T08:53:45;10.53;;;3.40;;
10550;SDS011;5324;50.684;3.862;2023-02-01T08:56:12;11.33;;;3.20;;
10550;SDS011;5324;50.684;3.862;2023-02-01T08:58:38;8.00;;;2.93;;
10550;SDS011;5324;50.684;3.862;2023-02-01T09:01:05;13.70;;;3.00;;
10550;SDS011;5324;50.684;3.862;2023-02-01T09:03:31;12.70;;;3.13;;
10550;SDS011;5324;50.684;3.862;2023-02-01T09:06:01;9.87;;;3.07;;
10550;SDS011;5324;50.684;3.862;2023-02-01T09:08:27;12.80;;;3.63;;
10550;SDS011;5324;50.684;3.862;2023-02-01T09:10:53;13.67;;;3.43;;
10550;SDS011;5324;50.684;3.862;2023-02-01T09:13:19;9.13;;;3.00;;
10550;SDS011;5324;50.684;3.862;2023-02-01T09:15:47;14.73;;;3.30;;
10550;SDS011;5324;50.684;3.862;2023-02-01T09:18:15;14.13;;;3.47;;
10550;SDS011;5324;50.684;3.862;2023-02-01T09:20:41;12.90;;;3.53;;
10550;SDS011;5324;50.684;3.862;2023-02-01T09:23:08;5.27;;;2.87;;
10550;SDS011;5324;50.684;3.862;2023-02-01T09:25:34;11.63;;;2.50;;
10550;SDS011;5324;50.684;3.862;2023-02-01T09:28:00;7.03;;;2.40;;
10550;SDS011;5324;50.684;3.862;2023-02-01T09:30:26;11.03;;;3.30;;
10550;SDS011;5324;50.684;3.862;2023-02-01T09:32:52;11.90;;;3.57;;
10550;SDS011;5324;50.684;3.862;2023-02-01T09:35:18;8.53;;;2.80;;
10550;SDS011;5324;50.684;3.862;2023-02-01T09:37:43;12.20;;;2.80;;
10550;SDS011;5324;50.684;3.862;2023-02-01T09:40:14;13.80;;;3.50;;
10550;SDS011;5324;50.684;3.862;2023-02-01T09:45:24;7.87;;;2.87;;
10550;SDS011;5324;50.684;3.862;2023-02-01T09:47:54;14.57;;;2.93;;
10550;SDS011;5324;50.684;3.862;2023-02-01T09:50:21;7.50;;;2.90;;
10550;SDS011;5324;50.684;3.862;2023-02-01T09:55:19;10.33;;;3.07;;
10550;SDS011;5324;50.684;3.862;2023-02-01T09:57:51;7.47;;;3.30;;
10550;SDS011;5324;50.684;3.862;2023-02-01T10:00:29;12.60;;;3.00;;
10550;SDS011;5324;50.684;3.862;2023-02-01T10:02:55;12.20;;;3.67;;
10550;SDS011;5324;50.684;3.862;2023-02-01T10:05:30;8.83;;;3.10;;
10550;SDS011;5324;50.684;3.862;2023-02-01T10:10:43;5.47;;;2.63;;
10550;SDS011;5324;50.684;3.862;2023-02-01T10:13:17;13.43;;;3.77;;
10550;SDS011;5324;50.684;3.862;2023-02-01T10:26:36;12.53;;;2.70;;
10550;SDS011;5324;50.684;3.862;2023-02-01T10:29:04;14.83;;;3.77;;
10550;SDS011;5324;50.684;3.862;2023-02-01T10:31:33;7.17;;;3.10;;
10550;SDS011;5324;50.684;3.862;2023-02-01T10:34:01;14.93;;;3.10;;
10550;SDS011;5324;50.684;3.862;2023-02-01T10:38:53;8.43;;;2.90;;
10550;SDS011;5324;50.684;3.862;2023-02-01T10:41:19;9.53;;;3.30;;
10550;SDS011;5324;50.684;3.862;2023-02-01T10:43:56;9.00;;;3.00;;
10550;SDS011;5324;50.684;3.862;2023-02-01T10:46:24;8.17;;;3.17;;
10550;SDS011;5324;50.684;3.862;2023-02-01T10:48:50;10.27;;;2.60;;
10550;SDS011;5324;50.684;3.862;2023-02-01T10:51:22;6.43;;;2.93;;
10550;SDS011;5324;50.684;3.862;2023-02-01T10:53:51;8.63;;;3.10;;
10550;SDS011;5324;50.684;3.862;2023-02-01T10:56:21;9.23;;;2.60;;
10550;SDS011;5324;50.684;3.862;2023-02-01T10:58:48;9.20;;;2.73;;
10550;SDS011;5324;50.684;3.862;2023-02-01T11:01:19;5.60;;;2.23;;
10550;SDS011;5324;50.684;3.862;2023-02-01T11:04:19;5.93;;;2.23;;
10550;SDS011;5324;50.684;3.862;2023-02-01T11:06:39;6.87;;;2.27;;
10550;SDS011;5324;50.684;3.862;2023-02-01T11:11:32;8.90;;;2.20;;
10550;SDS011;5324;50.684;3.862;2023-02-01T11:13:59;11.20;;;2.90;;
10550;SDS011;5324;50.684;3.862;2023-02-01T11:16:29;6.93;;;1.83;;
10550;SDS011;5324;50.684;3.862;2023-02-01T11:18:56;6.97;;;2.30;;
10550;SDS011;5324;50.684;3.862;2023-02-01T11:21:23;8.20;;;2.77;;
10550;SDS011;5324;50.684;3.862;2023-02-01T11:23:49;6.43;;;2.10;;
10550;SDS011;5324;50.684;3.862;2023-02-01T11:28:55;8.53;;;2.50;;
10550;SDS011;5324;50.684;3.862;2023-02-01T11:31:22;9.23;;;2.40;;
10550;SDS011;5324;50.684;3.862;2023-02-01T11:33:53;7.93;;;1.83;;
10550;SDS011;5324;50.684;3.862;2023-02-01T11:36:21;6.03;;;1.80;;
10550;SDS011;5324;50.684;3.862;2023-02-01T11:41:42;7.57;;;2.50;;
10550;SDS011;5324;50.684;3.862;2023-02-01T11:44:18;11.27;;;1.93;;
10550;SDS011;5324;50.684;3.862;2023-02-01T11:46:45;6.27;;;1.90;;
10550;SDS011;5324;50.684;3.862;2023-02-01T11:49:24;6.77;;;2.13;;
10550;SDS011;5324;50.684;3.862;2023-02-01T11:54:40;11.53;;;2.30;;
10550;SDS011;5324;50.684;3.862;2023-02-01T11:59:52;8.53;;;2.67;;
10550;SDS011;5324;50.684;3.862;2023-02-01T12:09:50;6.90;;;2.23;;
10550;SDS011;5324;50.684;3.862;2023-02-01T12:25:11;8.40;;;2.30;;
10550;SDS011;5324;50.684;3.862;2023-02-01T12:33:00;7.97;;;2.20;;
10550;SDS011;5324;50.684;3.862;2023-02-01T12:38:10;8.87;;;2.13;;
10550;SDS011;5324;50.684;3.862;2023-02-01T12:40:44;9.67;;;2.40;;
10550;SDS011;5324;50.684;3.862;2023-02-01T12:43:13;5.50;;;2.13;;
10550;SDS011;5324;50.684;3.862;2023-02-01T12:45:52;5.40;;;1.83;;
10550;SDS011;5324;50.684;3.862;2023-02-01T12:48:40;5.00;;;2.47;;
10550;SDS011;5324;50.684;3.862;2023-02-01T12:51:09;6.00;;;2.27;;
10550;SDS011;5324;50.684;3.862;2023-02-01T12:53:52;7.23;;;2.37;;
10550;SDS011;5324;50.684;3.862;2023-02-01T12:57:04;7.00;;;1.70;;
10550;SDS011;5324;50.684;3.862;2023-02-01T12:59:22;11.17;;;2.07;;
10550;SDS011;5324;50.684;3.862;2023-02-01T13:02:01;5.63;;;2.40;;
10550;SDS011;5324;50.684;3.862;2023-02-01T13:04:33;5.90;;;1.67;;
10550;SDS011;5324;50.684;3.862;2023-02-01T13:07:03;5.03;;;2.10;;
10550;SDS011;5324;50.684;3.862;2023-02-01T13:09:41;10.00;;;2.60;;
10550;SDS011;5324;50.684;3.862;2023-02-01T13:12:12;7.50;;;2.43;;
10550;SDS011;5324;50.684;3.862;2023-02-01T13:14:46;6.77;;;1.90;;
10550;SDS011;5324;50.684;3.862;2023-02-01T13:17:20;5.83;;;1.97;;
10550;SDS011;5324;50.684;3.862;2023-02-01T13:19:53;6.67;;;2.40;;
10550;SDS011;5324;50.684;3.862;2023-02-01T13:22:39;10.57;;;2.97;;
10550;SDS011;5324;50.684;3.862;2023-02-01T13:25:12;7.20;;;2.87;;
10550;SDS011;5324;50.684;3.862;2023-02-01T13:27:39;8.97;;;3.13;;
10550;SDS011;5324;50.684;3.862;2023-02-01T13:32:50;7.67;;;2.47;;
10550;SDS011;5324;50.684;3.862;2023-02-01T13:45:42;7.37;;;2.23;;
10550;SDS011;5324;50.684;3.862;2023-02-01T13:48:15;8.33;;;3.00;;
10550;SDS011;5324;50.684;3.862;2023-02-01T13:50:49;9.20;;;2.30;;
10550;SDS011;5324;50.684;3.862;2023-02-01T13:53:21;12.03;;;2.80;;
10550;SDS011;5324;50.684;3.862;2023-02-01T13:56:11;8.73;;;2.27;;
10550;SDS011;5324;50.684;3.862;2023-02-01T13:58:38;6.93;;;2.00;;
10550;SDS011;5324;50.684;3.862;2023-02-01T14:03:53;6.77;;;2.53;;
10550;SDS011;5324;50.684;3.862;2023-02-01T14:09:09;10.70;;;2.43;;
10550;SDS011;5324;50.684;3.862;2023-02-01T14:11:48;7.80;;;2.20;;
10550;SDS011;5324;50.684;3.862;2023-02-01T14:16:40;8.10;;;2.87;;
10550;SDS011;5324;50.684;3.862;2023-02-01T14:19:26;7.23;;;2.40;;
10550;SDS011;5324;50.684;3.862;2023-02-01T14:21:53;6.73;;;2.60;;
10550;SDS011;5324;50.684;3.862;2023-02-01T14:24:30;6.23;;;2.50;;
10550;SDS011;5324;50.684;3.862;2023-02-01T14:26:58;6.97;;;2.53;;
10550;SDS011;5324;50.684;3.862;2023-02-01T14:29:31;8.60;;;2.30;;
10550;SDS011;5324;50.684;3.862;2023-02-01T14:32:17;6.03;;;2.17;;
10550;SDS011;5324;50.684;3.862;2023-02-01T14:44:54;11.13;;;2.63;;
10550;SDS011;5324;50.684;3.862;2023-02-01T14:52:36;8.17;;;2.37;;
10550;SDS011;5324;50.684;3.862;2023-02-01T14:55:09;7.00;;;2.57;;
10550;SDS011;5324;50.684;3.862;2023-02-01T14:57:37;6.70;;;2.27;;
10550;SDS011;5324;50.684;3.862;2023-02-01T15:00:38;8.10;;;2.57;;
10550;SDS011;5324;50.684;3.862;2023-02-01T15:03:16;8.00;;;2.73;;
10550;SDS011;5324;50.684;3.862;2023-02-01T15:05:54;9.37;;;2.60;;
10550;SDS011;5324;50.684;3.862;2023-02-01T15:08:23;7.70;;;2.50;;
10550;SDS011;5324;50.684;3.862;2023-02-01T15:10:50;4.83;;;2.27;;
10550;SDS011;5324;50.684;3.862;2023-02-01T15:13:18;7.83;;;2.00;;
10550;SDS011;5324;50.684;3.862;2023-02-01T15:15:45;8.33;;;2.20;;
10550;SDS011;5324;50.684;3.862;2023-02-01T15:18:14;5.07;;;1.73;;
10550;SDS011;5324;50.684;3.862;2023-02-01T15:20:42;4.70;;;1.83;;
10550;SDS011;5324;50.684;3.862;2023-02-01T15:23:16;9.10;;;2.33;;
10550;SDS011;5324;50.684;3.862;2023-02-01T15:25:45;9.33;;;2.70;;
10550;SDS011;5324;50.684;3.862;2023-02-01T15:28:14;9.83;;;2.13;;
10550;SDS011;5324;50.684;3.862;2023-02-01T15:30:51;5.80;;;2.00;;
10550;SDS011;5324;50.684;3.862;2023-02-01T15:33:17;13.63;;;2.63;;
10550;SDS011;5324;50.684;3.862;2023-02-01T15:40:53;10.90;;;2.53;;
10550;SDS011;5324;50.684;3.862;2023-02-01T15:43:19;9.40;;;2.70;;
10550;SDS011;5324;50.684;3.862;2023-02-01T15:45:47;9.23;;;2.30;;
10550;SDS011;5324;50.684;3.862;2023-02-01T15:48:16;11.67;;;2.70;;
10550;SDS011;5324;50.684;3.862;2023-02-01T15:50:44;8.37;;;2.63;;
10550;SDS011;5324;50.684;3.862;2023-02-01T15:53:13;6.87;;;2.60;;
10550;SDS011;5324;50.684;3.862;2023-02-01T15:55:40;10.83;;;2.63;;
10550;SDS011;5324;50.684;3.862;2023-02-01T15:58:07;6.83;;;2.43;;
10550;SDS011;5324;50.684;3.862;2023-02-01T16:06:07;9.03;;;2.63;;
10550;SDS011;5324;50.684;3.862;2023-02-01T16:08:34;8.93;;;2.20;;
10550;SDS011;5324;50.684;3.862;2023-02-01T16:13:34;9.93;;;3.00;;
10550;SDS011;5324;50.684;3.862;2023-02-01T16:16:01;11.27;;;2.40;;
10550;SDS011;5324;50.684;3.862;2023-02-01T16:18:27;10.93;;;2.50;;
10550;SDS011;5324;50.684;3.862;2023-02-01T16:20:53;8.90;;;2.27;;
10550;SDS011;5324;50.684;3.862;2023-02-01T16:23:19;7.47;;;2.00;;
10550;SDS011;5324;50.684;3.862;2023-02-01T16:25:54;11.17;;;2.80;;
10550;SDS011;5324;50.684;3.862;2023-02-01T16:28:20;7.80;;;2.50;;
10550;SDS011;5324;50.684;3.862;2023-02-01T16:30:47;8.77;;;2.63;;
10550;SDS011;5324;50.684;3.862;2023-02-01T16:33:15;10.13;;;3.10;;
10550;SDS011;5324;50.684;3.862;2023-02-01T16:35:44;7.30;;;2.17;;
10550;SDS011;5324;50.684;3.862;2023-02-01T16:38:11;9.67;;;2.50;;
10550;SDS011;5324;50.684;3.862;2023-02-01T16:40:38;11.37;;;3.10;;
10550;SDS011;5324;50.684;3.862;2023-02-01T16:43:07;10.30;;;2.67;;
10550;SDS011;5324;50.684;3.862;2023-02-01T16:45:36;10.80;;;2.50;;
10550;SDS011;5324;50.684;3.862;2023-02-01T16:48:05;8.87;;;2.57;;
10550;SDS011;5324;50.684;3.862;2023-02-01T16:50:31;11.17;;;2.60;;
10550;SDS011;5324;50.684;3.862;2023-02-01T16:52:57;6.07;;;2.47;;
10550;SDS011;5324;50.684;3.862;2023-02-01T16:55:23;5.93;;;2.37;;
10550;SDS011;5324;50.684;3.862;2023-02-01T16:57:50;15.30;;;2.77;;
10550;SDS011;5324;50.684;3.862;2023-02-01T17:00:17;8.60;;;3.00;;
10550;SDS011;5324;50.684;3.862;2023-02-01T17:02:44;9.83;;;2.57;;
10550;SDS011;5324;50.684;3.862;2023-02-01T17:05:11;10.33;;;3.17;;
10550;SDS011;5324;50.684;3.862;2023-02-01T17:07:37;10.97;;;3.53;;
10550;SDS011;5324;50.684;3.862;2023-02-01T17:10:04;9.50;;;3.20;;
10550;SDS011;5324;50.684;3.862;2023-02-01T17:12:31;10.70;;;3.50;;
10550;SDS011;5324;50.684;3.862;2023-02-01T17:14:58;14.53;;;3.57;;
10550;SDS011;5324;50.684;3.862;2023-02-01T17:17:30;7.33;;;3.60;;
10550;SDS011;5324;50.684;3.862;2023-02-01T17:19:58;18.10;;;3.73;;
10550;SDS011;5324;50.684;3.862;2023-02-01T17:22:24;12.33;;;3.77;;
10550;SDS011;5324;50.684;3.862;2023-02-01T17:24:51;13.03;;;3.33;;
10550;SDS011;5324;50.684;3.862;2023-02-01T17:27:17;16.63;;;3.50;;
10550;SDS011;5324;50.684;3.862;2023-02-01T17:29:49;9.53;;;3.17;;
10550;SDS011;5324;50.684;3.862;2023-02-01T17:32:17;12.47;;;3.70;;
10550;SDS011;5324;50.684;3.862;2023-02-01T17:34:43;8.17;;;3.07;;
10550;SDS011;5324;50.684;3.862;2023-02-01T17:37:15;11.70;;;3.20;;
10550;SDS011;5324;50.684;3.862;2023-02-01T17:39:43;18.13;;;3.47;;
10550;SDS011;5324;50.684;3.862;2023-02-01T17:42:18;11.03;;;3.60;;
10550;SDS011;5324;50.684;3.862;2023-02-01T17:44:44;12.60;;;3.73;;